EDXW/GWT METAR and TAF weather

Enter ICAO airport designator
Station Type Date Time Source
EDXW METAR 2019/07/17 12:20 UTC NOAA

EDXW 171220Z 29007KT 250V330 CAVOK 17/13 Q1015


Station Type Date Time Source
EDXW Decoded METAR 2019/07/17 12:20 UTC NOAA

Westerland / Sylt, Germany (EDXW) 54-55N 008-21E 20M
Jul 17, 2019 - 08:20 AM EDT / 2019.07.17 1220 UTC
Wind: from the WNW (290 degrees) at 8 MPH (7 KT) (direction variable):0
Visibility: greater than 7 mile(s):0
Temperature: 62 F (17 C)
Dew Point: 55 F (13 C)
Relative Humidity: 77%
Pressure (altimeter): 29.97 in. Hg (1015 hPa)
ob: EDXW 171220Z 29007KT 250V330 CAVOK 17/13 Q1015
cycle: 12

Station Type Date Time Source
EDXW TAF 2009/07/07 14:00 UTC NOAA

TAF EDXW 071400Z 0715/0719 22015G25KT 9999 SCT020

Example: see airport list